createdAt,value
2023-05-12T00:00:13.401Z,58.34
2023-05-12T00:01:07.038Z,58.27
2023-05-12T00:01:40.786Z,58.16
2023-05-12T00:02:14.291Z,58.15
2023-05-12T00:02:47.672Z,58.29
2023-05-12T00:03:21.183Z,58.21
2023-05-12T00:03:54.615Z,58.26
2023-05-12T00:04:28.000Z,58.27
2023-05-12T00:05:01.630Z,58.33
2023-05-12T00:05:35.177Z,58.23
2023-05-12T00:06:08.817Z,58.30
2023-05-12T00:06:42.112Z,58.26
2023-05-12T00:07:15.994Z,58.38
2023-05-12T00:07:49.179Z,58.40
2023-05-12T00:08:22.367Z,58.42
2023-05-12T00:08:55.831Z,58.56
2023-05-12T00:09:29.014Z,58.50
2023-05-12T00:10:02.917Z,58.51
2023-05-12T00:10:36.097Z,58.55
2023-05-12T00:11:09.477Z,58.50
2023-05-12T00:11:43.183Z,58.48
2023-05-12T00:12:16.947Z,58.54
2023-05-12T00:12:50.238Z,58.50
2023-05-12T00:13:24.276Z,58.46
2023-05-12T00:13:58.071Z,58.58
2023-05-12T00:14:31.229Z,58.45
2023-05-12T00:15:04.991Z,58.44
2023-05-12T00:15:38.544Z,58.51
2023-05-12T00:16:11.778Z,58.50
2023-05-12T00:16:45.244Z,58.42
2023-05-12T00:17:18.680Z,58.44
2023-05-12T00:17:52.759Z,58.50
2023-05-12T00:18:28.584Z,58.54
2023-05-12T00:19:01.898Z,58.56
2023-05-12T00:19:36.773Z,58.49
2023-05-12T00:20:10.980Z,58.53
2023-05-12T00:20:44.173Z,58.51
2023-05-12T00:21:17.427Z,58.57
2023-05-12T00:21:50.714Z,58.54
2023-05-12T00:22:23.982Z,58.44
2023-05-12T00:22:57.268Z,58.48
2023-05-12T00:23:30.453Z,58.48
2023-05-12T00:24:04.148Z,58.59
2023-05-12T00:24:37.620Z,58.51
2023-05-12T00:25:10.812Z,58.39
2023-05-12T00:25:44.087Z,58.49
2023-05-12T00:26:17.985Z,58.56
2023-05-12T00:26:51.274Z,58.56
2023-05-12T00:27:24.534Z,58.66
2023-05-12T00:27:57.714Z,58.68
2023-05-12T00:28:31.947Z,58.70
2023-05-12T00:29:05.301Z,58.74
2023-05-12T00:29:38.498Z,58.74
2023-05-12T00:30:12.130Z,58.78
2023-05-12T00:30:45.561Z,58.70
2023-05-12T00:31:19.037Z,58.78
2023-05-12T00:31:52.897Z,58.76
2023-05-12T00:32:27.774Z,58.79
2023-05-12T00:33:00.958Z,58.83
2023-05-12T00:33:34.309Z,58.90
2023-05-12T00:34:07.611Z,59.03
2023-05-12T00:34:40.889Z,58.89
2023-05-12T00:35:14.256Z,58.93
2023-05-12T00:35:47.427Z,58.93
2023-05-12T00:36:20.915Z,58.98
2023-05-12T00:36:54.097Z,58.98
2023-05-12T00:37:27.390Z,59.01
2023-05-12T00:38:00.551Z,59.02
2023-05-12T00:38:34.800Z,59.09
2023-05-12T00:39:08.141Z,59.08
2023-05-12T00:39:41.288Z,58.94
2023-05-12T00:40:14.607Z,59.01
2023-05-12T00:40:47.985Z,59.09
2023-05-12T00:41:21.364Z,59.01
2023-05-12T00:41:57.025Z,59.12
2023-05-12T00:42:30.185Z,59.05
2023-05-12T00:43:03.469Z,59.00
2023-05-12T00:43:36.946Z,59.11
2023-05-12T00:44:10.640Z,58.96
2023-05-12T00:44:43.920Z,59.18
2023-05-12T00:45:17.508Z,59.03
2023-05-12T00:45:50.772Z,59.10
2023-05-12T00:46:24.217Z,59.05
2023-05-12T00:46:58.166Z,58.97
2023-05-12T00:47:32.519Z,59.10
2023-05-12T00:48:07.010Z,59.13
2023-05-12T00:48:40.737Z,59.20
2023-05-12T00:49:14.477Z,59.11
2023-05-12T00:49:47.921Z,59.13
2023-05-12T00:50:22.363Z,59.11
2023-05-12T00:50:57.168Z,59.09
2023-05-12T00:51:31.196Z,59.12
2023-05-12T00:52:04.978Z,59.14
2023-05-12T00:52:38.144Z,59.02
2023-05-12T00:53:12.659Z,59.09
2023-05-12T00:53:50.054Z,59.10
2023-05-12T00:54:23.831Z,59.06
2023-05-12T00:54:57.608Z,59.16
2023-05-12T00:55:31.814Z,59.18
2023-05-12T00:56:05.706Z,59.26
2023-05-12T00:56:42.115Z,59.38
2023-05-12T00:57:15.446Z,59.31
2023-05-12T00:57:48.743Z,59.29
2023-05-12T00:58:22.736Z,59.33
2023-05-12T00:58:56.353Z,59.40
2023-05-12T00:59:29.952Z,59.22
2023-05-12T01:00:05.202Z,59.38
2023-05-12T01:00:38.602Z,59.33
2023-05-12T01:01:11.998Z,59.31
2023-05-12T01:01:46.763Z,59.19
2023-05-12T01:02:20.414Z,59.31
2023-05-12T01:02:54.016Z,59.39
2023-05-12T01:03:27.912Z,59.38
2023-05-12T01:04:02.842Z,59.37
2023-05-12T01:04:36.654Z,59.50
2023-05-12T01:05:10.562Z,59.50
2023-05-12T01:05:51.248Z,59.52
2023-05-12T01:06:38.449Z,59.53
2023-05-12T01:07:32.958Z,59.48
2023-05-12T01:08:06.611Z,59.53
2023-05-12T01:08:41.851Z,59.52
2023-05-12T01:09:16.677Z,59.56
2023-05-12T01:09:54.831Z,59.59
2023-05-12T01:10:28.092Z,59.56
2023-05-12T01:11:01.405Z,59.64
2023-05-12T01:11:34.896Z,59.62
2023-05-12T01:12:08.220Z,59.66
2023-05-12T01:12:42.087Z,59.62
2023-05-12T01:13:15.556Z,59.69
2023-05-12T01:13:48.780Z,59.68
2023-05-12T01:14:22.220Z,59.65
2023-05-12T01:14:57.422Z,59.72
2023-05-12T01:15:33.295Z,59.69
2023-05-12T01:16:09.781Z,59.68
2023-05-12T01:16:53.383Z,59.79
2023-05-12T01:17:33.496Z,59.61
2023-05-12T01:18:07.728Z,59.66
2023-05-12T01:18:43.642Z,59.78
2023-05-12T01:19:26.042Z,59.69
2023-05-12T01:20:02.112Z,59.71
2023-05-12T01:20:35.901Z,59.66
2023-05-12T01:21:11.011Z,59.75
2023-05-12T01:21:44.104Z,59.73
2023-05-12T01:22:18.190Z,59.77
2023-05-12T01:22:52.806Z,59.75
2023-05-12T01:23:34.838Z,59.82
2023-05-12T01:24:09.506Z,59.74
2023-05-12T01:24:50.329Z,59.75
2023-05-12T01:25:24.068Z,59.66
2023-05-12T01:26:08.186Z,59.72
2023-05-12T01:26:41.473Z,59.63
2023-05-12T01:27:16.379Z,59.55
2023-05-12T01:27:50.780Z,59.52
2023-05-12T01:28:24.191Z,59.55
2023-05-12T01:28:58.068Z,59.69
2023-05-12T01:29:32.782Z,59.70
2023-05-12T01:30:07.387Z,59.67
2023-05-12T01:30:44.219Z,59.75
2023-05-12T01:31:19.622Z,59.72
2023-05-12T01:31:55.337Z,59.74
2023-05-12T01:32:29.848Z,59.76
2023-05-12T01:33:03.181Z,59.79
2023-05-12T01:33:37.217Z,59.75
2023-05-12T01:34:16.197Z,59.75
2023-05-12T01:34:50.632Z,59.84
2023-05-12T01:35:23.925Z,59.85
2023-05-12T01:35:57.330Z,59.98
2023-05-12T01:36:31.824Z,59.94
2023-05-12T01:37:05.294Z,59.88
2023-05-12T01:37:38.465Z,59.93
2023-05-12T01:38:11.852Z,60.00
2023-05-12T01:38:45.283Z,60.03
2023-05-12T01:39:18.737Z,60.07
2023-05-12T01:39:51.995Z,60.05
2023-05-12T01:40:25.606Z,60.13
2023-05-12T01:40:59.102Z,60.11
2023-05-12T01:41:32.499Z,60.16
2023-05-12T01:42:06.769Z,60.26
2023-05-12T01:42:42.016Z,60.20
2023-05-12T01:43:15.128Z,60.20
2023-05-12T01:43:48.440Z,60.12
2023-05-12T01:44:21.837Z,60.22
2023-05-12T01:44:55.008Z,60.11
2023-05-12T01:45:28.332Z,60.07
2023-05-12T01:46:01.635Z,60.20
2023-05-12T01:46:35.110Z,60.16
2023-05-12T01:47:11.513Z,60.19
2023-05-12T01:47:44.713Z,60.33
2023-05-12T01:48:18.163Z,60.28
2023-05-12T01:48:51.663Z,60.29
2023-05-12T01:49:25.339Z,60.31
2023-05-12T01:49:58.852Z,60.33
2023-05-12T01:50:32.206Z,60.50
2023-05-12T01:51:09.029Z,60.41
2023-05-12T01:51:42.258Z,60.33
2023-05-12T01:52:15.558Z,60.36
2023-05-12T01:52:49.015Z,60.38
2023-05-12T01:53:22.206Z,60.33
2023-05-12T01:53:55.588Z,60.38
2023-05-12T01:54:28.648Z,60.21
2023-05-12T01:55:01.837Z,60.34
2023-05-12T01:55:35.218Z,60.29
2023-05-12T01:56:08.503Z,60.42
2023-05-12T01:56:42.432Z,60.47
2023-05-12T01:57:15.576Z,60.33
2023-05-12T01:57:48.770Z,60.41
2023-05-12T01:58:22.235Z,60.41
2023-05-12T01:58:55.467Z,60.33
2023-05-12T01:59:29.132Z,60.41
2023-05-12T02:00:02.435Z,60.42
2023-05-12T02:00:35.964Z,60.33
2023-05-12T02:01:09.252Z,60.39
2023-05-12T02:01:42.504Z,60.44
2023-05-12T02:02:15.951Z,60.52
2023-05-12T02:02:50.690Z,60.46
2023-05-12T02:03:24.214Z,60.44
2023-05-12T02:03:57.748Z,60.54
2023-05-12T02:04:31.218Z,60.63
2023-05-12T02:05:05.079Z,60.63
2023-05-12T02:05:38.478Z,60.63
2023-05-12T02:06:11.739Z,60.63
2023-05-12T02:06:45.028Z,60.60
2023-05-12T02:07:18.414Z,60.60
2023-05-12T02:07:51.692Z,60.66
2023-05-12T02:08:25.281Z,60.66
2023-05-12T02:08:59.195Z,60.70
2023-05-12T02:09:32.955Z,60.79
2023-05-12T02:10:07.368Z,60.73
2023-05-12T02:10:40.688Z,60.78
2023-05-12T02:11:14.042Z,60.69
2023-05-12T02:11:47.411Z,60.78
2023-05-12T02:12:20.693Z,60.78
2023-05-12T02:12:53.988Z,60.76
2023-05-12T02:13:27.251Z,60.73
2023-05-12T02:14:00.865Z,60.74
2023-05-12T02:14:34.431Z,60.74
2023-05-12T02:15:08.467Z,60.68
2023-05-12T02:15:42.032Z,60.68
2023-05-12T02:16:15.559Z,60.76
2023-05-12T02:16:52.975Z,60.74
2023-05-12T02:17:26.498Z,60.83
2023-05-12T02:17:59.786Z,60.78
2023-05-12T02:18:33.684Z,60.91
2023-05-12T02:19:07.149Z,60.85
2023-05-12T02:19:40.732Z,60.86
2023-05-12T02:20:14.150Z,60.85
2023-05-12T02:20:47.399Z,60.81
2023-05-12T02:21:20.687Z,60.90
2023-05-12T02:21:54.151Z,60.92
2023-05-12T02:22:27.539Z,60.94
2023-05-12T02:23:01.213Z,60.93
2023-05-12T02:23:34.575Z,60.91
2023-05-12T02:24:08.282Z,60.93
2023-05-12T02:24:41.563Z,60.96
2023-05-12T02:25:14.984Z,60.97
2023-05-12T02:25:48.356Z,61.01
2023-05-12T02:26:21.920Z,60.94
2023-05-12T02:26:55.104Z,60.92
2023-05-12T02:27:28.384Z,60.94
2023-05-12T02:28:02.602Z,60.93
2023-05-12T02:28:36.791Z,60.98
2023-05-12T02:29:11.185Z,60.86
2023-05-12T02:29:44.380Z,61.01
2023-05-12T02:30:17.790Z,61.01
2023-05-12T02:30:53.242Z,61.03
2023-05-12T02:31:26.898Z,60.92
2023-05-12T02:32:00.386Z,60.76
2023-05-12T02:32:34.580Z,60.88
2023-05-12T02:33:08.149Z,60.86
2023-05-12T02:33:41.362Z,60.90
2023-05-12T02:34:15.361Z,61.05
2023-05-12T02:34:48.613Z,61.07
2023-05-12T02:35:22.002Z,61.01
2023-05-12T02:35:55.291Z,61.06
2023-05-12T02:36:28.669Z,61.00
2023-05-12T02:37:01.829Z,61.07
2023-05-12T02:37:35.110Z,61.06
2023-05-12T02:38:08.405Z,60.98
2023-05-12T02:38:42.389Z,61.07
2023-05-12T02:39:15.571Z,61.24
2023-05-12T02:39:49.155Z,61.24
2023-05-12T02:40:22.535Z,61.29
2023-05-12T02:40:56.233Z,61.35
2023-05-12T02:41:29.536Z,61.32
2023-05-12T02:42:02.783Z,61.42
2023-05-12T02:42:38.615Z,61.45
2023-05-12T02:43:12.267Z,61.46
2023-05-12T02:43:45.727Z,61.50
2023-05-12T02:44:21.026Z,61.46
2023-05-12T02:44:54.309Z,61.58
2023-05-12T02:45:28.110Z,61.45
2023-05-12T02:46:01.682Z,61.46
2023-05-12T02:46:35.184Z,61.52
2023-05-12T02:47:08.564Z,61.51
2023-05-12T02:47:41.995Z,61.58
2023-05-12T02:48:15.441Z,61.64
2023-05-12T02:48:48.705Z,61.60
2023-05-12T02:49:21.988Z,61.66
2023-05-12T02:49:57.135Z,61.81
2023-05-12T02:50:30.367Z,61.71
2023-05-12T02:51:03.897Z,61.80
2023-05-12T02:51:37.367Z,61.81
2023-05-12T02:52:10.567Z,61.76
2023-05-12T02:52:43.729Z,61.76
2023-05-12T02:53:17.053Z,61.92
2023-05-12T02:53:50.338Z,61.86
2023-05-12T02:54:23.692Z,61.84
2023-05-12T02:54:57.267Z,61.76
2023-05-12T02:55:30.535Z,61.70
2023-05-12T02:56:03.930Z,61.90
2023-05-12T02:56:37.193Z,61.79
2023-05-12T02:57:12.011Z,61.75
2023-05-12T02:57:45.200Z,61.69
2023-05-12T02:58:18.588Z,61.56
2023-05-12T02:58:51.652Z,61.60
2023-05-12T02:59:24.938Z,61.51
2023-05-12T02:59:58.043Z,61.57
2023-05-12T03:00:33.628Z,61.68
2023-05-12T03:01:11.294Z,61.67
2023-05-12T03:01:45.190Z,61.62
2023-05-12T03:02:18.800Z,61.75
2023-05-12T03:02:52.250Z,61.70
2023-05-12T03:03:25.905Z,61.81
2023-05-12T03:03:59.369Z,61.85
2023-05-12T03:04:33.550Z,61.79
2023-05-12T03:05:08.661Z,61.95
2023-05-12T03:05:41.909Z,61.83
2023-05-12T03:06:15.252Z,61.94
2023-05-12T03:06:48.544Z,61.94
2023-05-12T03:07:22.121Z,61.93
2023-05-12T03:07:55.402Z,62.04
2023-05-12T03:08:28.738Z,62.00
2023-05-12T03:09:02.282Z,61.96
2023-05-12T03:09:35.447Z,61.93
2023-05-12T03:10:10.688Z,62.01
2023-05-12T03:10:44.465Z,62.03
2023-05-12T03:11:17.908Z,61.95
2023-05-12T03:11:51.269Z,61.86
2023-05-12T03:12:24.961Z,61.94
2023-05-12T03:12:58.201Z,61.97
2023-05-12T03:13:31.638Z,61.89
2023-05-12T03:14:04.983Z,61.97
2023-05-12T03:14:38.175Z,62.05
2023-05-12T03:15:11.923Z,61.95
2023-05-12T03:15:45.528Z,62.05
2023-05-12T03:16:19.718Z,62.01
2023-05-12T03:16:53.268Z,62.06
2023-05-12T03:17:27.167Z,62.07
2023-05-12T03:18:00.758Z,62.05
2023-05-12T03:18:34.333Z,62.07
2023-05-12T03:19:07.619Z,62.11
2023-05-12T03:19:41.159Z,62.08
2023-05-12T03:20:14.546Z,62.06
2023-05-12T03:20:48.334Z,62.06
2023-05-12T03:21:21.562Z,61.96
2023-05-12T03:21:55.413Z,62.09
2023-05-12T03:22:28.669Z,62.03
2023-05-12T03:23:02.171Z,62.04
2023-05-12T03:23:35.683Z,62.00
2023-05-12T03:24:09.242Z,62.06
2023-05-12T03:24:42.327Z,62.13
2023-05-12T03:25:16.183Z,62.15
2023-05-12T03:25:49.283Z,62.10
2023-05-12T03:26:22.671Z,62.11
2023-05-12T03:26:56.388Z,62.11
2023-05-12T03:27:30.255Z,62.13
2023-05-12T03:28:03.842Z,62.18
2023-05-12T03:28:37.238Z,62.23
2023-05-12T03:29:10.528Z,62.17
2023-05-12T03:29:43.690Z,62.27
2023-05-12T03:30:17.060Z,62.25
2023-05-12T03:30:50.187Z,62.28
2023-05-12T03:31:23.586Z,62.20
2023-05-12T03:31:57.214Z,62.04
2023-05-12T03:32:30.326Z,62.13
2023-05-12T03:33:03.968Z,62.04
2023-05-12T03:33:37.270Z,62.04
2023-05-12T03:34:10.556Z,62.12
2023-05-12T03:34:43.826Z,62.11
2023-05-12T03:35:16.940Z,62.15
2023-05-12T03:35:50.179Z,62.20
2023-05-12T03:36:24.185Z,62.18
2023-05-12T03:36:57.697Z,62.24
2023-05-12T03:37:31.043Z,62.17
2023-05-12T03:38:04.228Z,62.26
2023-05-12T03:38:37.512Z,62.26
2023-05-12T03:39:10.781Z,62.27
2023-05-12T03:39:44.162Z,62.22
2023-05-12T03:40:19.241Z,62.30
2023-05-12T03:40:53.155Z,62.33
2023-05-12T03:41:26.362Z,62.24
2023-05-12T03:41:59.856Z,62.32
2023-05-12T03:42:33.241Z,62.19
2023-05-12T03:43:06.427Z,62.10
2023-05-12T03:43:40.591Z,62.23
2023-05-12T03:44:13.788Z,62.32
2023-05-12T03:44:47.175Z,62.25
2023-05-12T03:45:20.664Z,62.30
2023-05-12T03:45:54.082Z,62.27
2023-05-12T03:46:27.618Z,62.29
2023-05-12T03:47:01.192Z,62.44
2023-05-12T03:47:36.275Z,62.29
2023-05-12T03:48:09.739Z,62.46
2023-05-12T03:48:43.294Z,62.44
2023-05-12T03:49:16.797Z,62.66
2023-05-12T03:49:50.181Z,62.53
2023-05-12T03:50:23.568Z,62.60
2023-05-12T03:50:57.285Z,62.56
2023-05-12T03:51:31.567Z,62.59
2023-05-12T03:52:05.457Z,62.51
2023-05-12T03:52:41.632Z,62.43
2023-05-12T03:53:15.601Z,62.43
2023-05-12T03:53:48.777Z,62.58
2023-05-12T03:54:22.878Z,62.55
2023-05-12T03:54:56.149Z,62.46
2023-05-12T03:55:29.459Z,62.52
2023-05-12T03:56:06.807Z,62.50
2023-05-12T03:56:40.091Z,62.48
2023-05-12T03:57:13.444Z,62.31
2023-05-12T03:57:49.424Z,62.49
2023-05-12T03:58:26.197Z,62.29
2023-05-12T03:58:59.567Z,62.27
2023-05-12T03:59:32.877Z,62.36
2023-05-12T04:00:06.667Z,62.22
2023-05-12T04:00:40.134Z,62.31
2023-05-12T04:01:13.828Z,62.30
2023-05-12T04:01:46.849Z,62.22
2023-05-12T04:02:20.112Z,62.21
2023-05-12T04:02:53.801Z,62.10
2023-05-12T04:03:28.390Z,62.07
2023-05-12T04:04:01.853Z,62.07
2023-05-12T04:04:35.145Z,61.94
2023-05-12T04:05:10.275Z,62.00
2023-05-12T04:05:43.532Z,61.93
2023-05-12T04:06:16.940Z,62.03
2023-05-12T04:06:50.312Z,62.02
2023-05-12T04:07:23.694Z,62.07
2023-05-12T04:07:57.093Z,62.07
2023-05-12T04:08:31.474Z,61.92
2023-05-12T04:09:04.660Z,61.84
2023-05-12T04:09:37.975Z,62.01
2023-05-12T04:10:11.640Z,61.94
2023-05-12T04:10:45.024Z,62.07
2023-05-12T04:11:18.293Z,62.10
2023-05-12T04:11:51.882Z,62.16
2023-05-12T04:12:25.180Z,62.09
2023-05-12T04:12:58.961Z,62.05
2023-05-12T04:13:33.199Z,62.12
2023-05-12T04:14:06.535Z,62.02
2023-05-12T04:14:43.203Z,62.09
2023-05-12T04:15:16.703Z,62.09
2023-05-12T04:15:50.260Z,62.00
2023-05-12T04:16:23.690Z,62.08
2023-05-12T04:16:57.287Z,62.03
2023-05-12T04:17:31.062Z,62.05
2023-05-12T04:18:04.539Z,62.08
2023-05-12T04:18:38.027Z,62.20
2023-05-12T04:19:11.441Z,62.16
2023-05-12T04:19:44.863Z,62.12
2023-05-12T04:20:18.477Z,62.01
2023-05-12T04:20:52.042Z,62.22
2023-05-12T04:21:25.121Z,62.12
2023-05-12T04:21:58.500Z,62.12
2023-05-12T04:22:32.010Z,62.03
2023-05-12T04:23:05.162Z,62.19
2023-05-12T04:23:38.447Z,62.03
2023-05-12T04:24:11.936Z,62.16
2023-05-12T04:24:45.225Z,62.03
2023-05-12T04:25:18.403Z,62.10
2023-05-12T04:25:51.593Z,62.19
2023-05-12T04:26:24.958Z,62.14
2023-05-12T04:26:58.231Z,62.04
2023-05-12T04:27:31.305Z,62.07
2023-05-12T04:28:04.906Z,61.99
2023-05-12T04:28:38.272Z,62.18
2023-05-12T04:29:11.690Z,62.15
2023-05-12T04:29:44.971Z,61.91
2023-05-12T04:30:18.962Z,61.87
2023-05-12T04:30:52.451Z,61.86
2023-05-12T04:31:26.157Z,61.73
2023-05-12T04:32:00.483Z,61.83
2023-05-12T04:32:34.067Z,61.70
2023-05-12T04:33:07.517Z,61.76
2023-05-12T04:33:41.004Z,61.74
2023-05-12T04:34:14.368Z,61.80
2023-05-12T04:34:48.463Z,61.82
2023-05-12T04:35:21.882Z,61.76
2023-05-12T04:35:59.236Z,61.85
2023-05-12T04:36:33.941Z,61.72
2023-05-12T04:37:07.248Z,62.02
2023-05-12T04:37:40.794Z,61.77
2023-05-12T04:38:14.288Z,61.84
2023-05-12T04:38:47.577Z,61.85
2023-05-12T04:39:20.895Z,61.81
2023-05-12T04:39:54.437Z,61.83
2023-05-12T04:40:28.333Z,61.83
2023-05-12T04:41:01.718Z,61.86
2023-05-12T04:41:36.206Z,61.67
2023-05-12T04:42:09.403Z,61.62
2023-05-12T04:42:42.579Z,61.78
2023-05-12T04:44:28.480Z,61.70
2023-05-12T04:45:01.904Z,61.38
2023-05-12T04:45:35.455Z,61.31
2023-05-12T04:46:08.828Z,61.35
2023-05-12T04:46:43.560Z,61.37
2023-05-12T04:47:16.834Z,61.24
2023-05-12T04:47:50.392Z,61.32
2023-05-12T04:48:24.222Z,61.07
2023-05-12T04:48:57.742Z,61.21
2023-05-12T04:49:31.377Z,61.24
2023-05-12T04:50:06.079Z,61.14
2023-05-12T04:50:39.489Z,61.14
2023-05-12T04:51:12.919Z,61.14
2023-05-12T04:51:46.139Z,60.97
2023-05-12T04:52:21.573Z,61.04
2023-05-12T04:52:54.774Z,61.16
2023-05-12T04:53:28.333Z,60.99
2023-05-12T04:54:02.481Z,60.92
2023-05-12T04:54:35.712Z,60.98
2023-05-12T04:55:09.854Z,60.88
2023-05-12T04:55:46.169Z,60.88
2023-05-12T04:56:19.680Z,60.72
2023-05-12T04:56:53.124Z,60.76
2023-05-12T04:57:26.427Z,60.65
2023-05-12T04:57:59.685Z,60.75
2023-05-12T04:58:33.072Z,60.69
2023-05-12T04:59:06.904Z,60.59
2023-05-12T04:59:41.353Z,60.75
2023-05-12T05:00:15.716Z,60.62
2023-05-12T05:00:48.954Z,60.61
2023-05-12T05:01:22.357Z,60.48
2023-05-12T05:01:55.742Z,60.65
2023-05-12T05:02:29.265Z,60.49
2023-05-12T05:03:02.789Z,60.33
2023-05-12T05:03:36.448Z,60.50
2023-05-12T05:04:09.990Z,60.55
2023-05-12T05:04:43.358Z,60.50
2023-05-12T05:05:16.866Z,60.38
2023-05-12T05:05:49.945Z,60.45
2023-05-12T05:06:23.317Z,60.30
2023-05-12T05:06:56.583Z,60.44
2023-05-12T05:07:29.964Z,60.42
2023-05-12T05:08:03.264Z,60.38
2023-05-12T05:08:37.044Z,60.40
2023-05-12T05:09:10.330Z,60.31
2023-05-12T05:09:43.940Z,60.15
2023-05-12T05:10:17.503Z,60.21
2023-05-12T05:10:50.670Z,60.28
2023-05-12T05:11:24.050Z,60.11
2023-05-12T05:11:57.432Z,60.15
2023-05-12T05:12:31.127Z,60.15
2023-05-12T05:13:04.311Z,59.97
2023-05-12T05:13:38.410Z,60.07
2023-05-12T05:14:11.694Z,59.94
2023-05-12T05:14:44.770Z,59.96
2023-05-12T05:15:18.267Z,59.84
2023-05-12T05:15:55.703Z,59.95
2023-05-12T05:16:29.089Z,59.95
2023-05-12T05:17:02.695Z,59.95
2023-05-12T05:17:36.119Z,59.93
2023-05-12T05:18:09.859Z,59.77
2023-05-12T05:18:46.949Z,59.82
2023-05-12T05:19:25.494Z,59.78
2023-05-12T05:20:11.738Z,59.59
2023-05-12T05:21:24.138Z,59.85
2023-05-12T05:21:57.316Z,59.73
2023-05-12T05:22:30.684Z,59.77
2023-05-12T05:23:04.280Z,59.64
2023-05-12T05:23:37.550Z,59.65
2023-05-12T05:24:11.054Z,59.43
2023-05-12T05:24:44.230Z,59.48
2023-05-12T05:25:17.799Z,59.42
2023-05-12T05:25:51.857Z,59.30
2023-05-12T05:26:25.699Z,59.34
2023-05-12T05:27:00.020Z,59.33
2023-05-12T05:27:33.212Z,59.19
2023-05-12T05:28:07.205Z,59.27
2023-05-12T05:28:40.484Z,59.16
2023-05-12T05:29:13.838Z,59.19
2023-05-12T05:29:47.358Z,59.05
2023-05-12T05:30:21.061Z,59.19
2023-05-12T05:30:54.660Z,59.15
2023-05-12T05:31:29.150Z,58.95
2023-05-12T05:32:02.598Z,58.99
2023-05-12T05:32:40.756Z,59.06
2023-05-12T05:33:14.184Z,59.07
2023-05-12T05:33:48.221Z,59.17
2023-05-12T05:34:21.642Z,59.14
2023-05-12T05:34:54.975Z,59.21
2023-05-12T05:35:28.271Z,58.95
2023-05-12T05:36:02.134Z,59.01
2023-05-12T05:36:35.814Z,59.13
2023-05-12T05:37:09.509Z,59.03
2023-05-12T05:37:43.094Z,59.16
2023-05-12T05:38:16.680Z,59.15
2023-05-12T05:38:49.951Z,59.10
2023-05-12T05:39:23.387Z,59.05
2023-05-12T05:39:56.819Z,59.02
2023-05-12T05:40:36.056Z,59.14
2023-05-12T05:41:18.852Z,59.10
2023-05-12T05:41:52.099Z,59.09
2023-05-12T05:42:26.219Z,59.00
2023-05-12T05:42:59.505Z,59.13
2023-05-12T05:43:33.105Z,58.95
2023-05-12T05:44:06.309Z,59.08
2023-05-12T05:44:40.075Z,58.92
2023-05-12T05:45:13.354Z,58.95
2023-05-12T05:45:46.599Z,58.92
2023-05-12T05:46:19.953Z,58.80
2023-05-12T05:46:53.324Z,58.88
2023-05-12T05:47:28.605Z,58.70
2023-05-12T05:48:02.114Z,58.67
2023-05-12T05:48:36.717Z,58.56
2023-05-12T05:49:10.021Z,58.64
2023-05-12T05:49:43.795Z,58.65
2023-05-12T05:50:17.266Z,58.69
2023-05-12T05:50:52.496Z,58.68
2023-05-12T05:51:25.781Z,58.58
2023-05-12T05:51:59.072Z,58.65
2023-05-12T05:52:32.438Z,58.61
2023-05-12T05:53:06.448Z,58.38
2023-05-12T05:53:39.765Z,58.34
2023-05-12T05:54:13.111Z,58.25
2023-05-12T05:54:46.803Z,58.26
2023-05-12T05:55:20.828Z,58.11
2023-05-12T05:55:54.443Z,58.09
2023-05-12T05:56:27.767Z,58.28
2023-05-12T05:57:03.330Z,58.10
2023-05-12T05:57:36.464Z,58.13
2023-05-12T05:58:10.051Z,58.13
2023-05-12T05:58:43.239Z,58.11
2023-05-12T05:59:17.031Z,58.15
2023-05-12T05:59:50.214Z,57.87
2023-05-12T06:00:23.686Z,57.92
2023-05-12T06:00:57.319Z,57.87
2023-05-12T06:01:31.731Z,57.96
2023-05-12T06:02:05.646Z,57.98
2023-05-12T06:02:39.257Z,58.06
2023-05-12T06:03:13.050Z,57.92
2023-05-12T06:03:46.975Z,57.67
2023-05-12T06:04:20.433Z,57.54
2023-05-12T06:04:54.549Z,57.45
2023-05-12T06:05:28.036Z,57.41
2023-05-12T06:06:01.843Z,57.47
2023-05-12T06:06:35.112Z,57.39
2023-05-12T06:07:08.383Z,57.45
2023-05-12T06:07:41.823Z,57.41
2023-05-12T06:08:15.080Z,57.29
2023-05-12T06:08:48.332Z,57.28
2023-05-12T06:09:22.148Z,57.23
2023-05-12T06:09:55.510Z,57.09
2023-05-12T06:10:28.869Z,57.08
2023-05-12T06:11:02.268Z,56.79
2023-05-12T06:11:35.546Z,56.84
2023-05-12T06:12:09.237Z,56.83
2023-05-12T06:12:43.554Z,56.77
2023-05-12T06:13:16.735Z,56.72
2023-05-12T06:13:50.211Z,56.70
2023-05-12T06:14:23.684Z,56.70
2023-05-12T06:14:57.067Z,56.57
2023-05-12T06:15:30.484Z,56.57
2023-05-12T06:16:04.043Z,56.52
2023-05-12T06:16:37.356Z,56.30
2023-05-12T06:17:10.742Z,56.30
2023-05-12T06:17:44.761Z,56.28
2023-05-12T06:18:17.878Z,56.35
2023-05-12T06:18:51.207Z,56.21
2023-05-12T06:19:24.644Z,56.34
2023-05-12T06:19:57.854Z,56.42
2023-05-12T06:20:32.759Z,56.39
2023-05-12T06:21:06.465Z,56.32
2023-05-12T06:21:39.734Z,56.23
2023-05-12T06:22:12.900Z,56.19
2023-05-12T06:22:46.581Z,55.97
2023-05-12T06:23:19.792Z,55.91
2023-05-12T06:23:55.101Z,56.02
2023-05-12T06:24:28.411Z,55.75
2023-05-12T06:25:02.543Z,55.68
2023-05-12T06:25:35.877Z,55.80
2023-05-12T06:26:09.862Z,55.74
2023-05-12T06:26:43.022Z,55.69
2023-05-12T06:27:16.410Z,55.57
2023-05-12T06:27:52.969Z,55.51
2023-05-12T06:28:26.366Z,55.50
2023-05-12T06:28:59.684Z,55.44
2023-05-12T06:29:33.234Z,55.38
2023-05-12T06:30:07.570Z,55.33
2023-05-12T06:30:40.855Z,55.31
2023-05-12T06:31:14.295Z,55.30
2023-05-12T06:31:47.780Z,55.26
2023-05-12T06:32:21.194Z,55.21
2023-05-12T06:32:54.495Z,55.08
2023-05-12T06:33:28.254Z,55.15
2023-05-12T06:34:03.324Z,55.25
2023-05-12T06:34:36.567Z,55.21
2023-05-12T06:35:10.253Z,55.22
2023-05-12T06:35:43.514Z,55.10
2023-05-12T06:36:17.119Z,54.96
2023-05-12T06:36:50.414Z,55.08
2023-05-12T06:37:23.862Z,54.95
2023-05-12T06:37:57.253Z,54.90
2023-05-12T06:38:30.627Z,54.90
2023-05-12T06:39:04.748Z,54.91
2023-05-12T06:39:38.134Z,54.80
2023-05-12T06:40:12.147Z,54.89
2023-05-12T06:40:45.284Z,55.00
2023-05-12T06:41:18.564Z,54.82
2023-05-12T06:41:52.368Z,54.81
2023-05-12T06:42:25.762Z,54.80
2023-05-12T06:42:59.238Z,54.87
2023-05-12T06:43:32.762Z,54.88
2023-05-12T06:44:06.966Z,54.84
2023-05-12T06:44:42.114Z,54.87
2023-05-12T06:45:16.246Z,54.73
2023-05-12T06:45:49.750Z,54.66
2023-05-12T06:46:23.640Z,54.67
2023-05-12T06:46:57.006Z,54.69
2023-05-12T06:47:30.220Z,54.58
2023-05-12T06:48:06.225Z,54.40
2023-05-12T06:48:39.605Z,54.33
2023-05-12T06:49:13.020Z,54.39
2023-05-12T06:49:46.486Z,54.39
2023-05-12T06:50:19.873Z,54.45
2023-05-12T06:50:53.656Z,54.50
2023-05-12T06:51:26.956Z,54.43
2023-05-12T06:52:00.214Z,54.42
2023-05-12T06:52:33.697Z,54.32
2023-05-12T06:53:08.528Z,54.30
2023-05-12T06:53:41.784Z,54.17
2023-05-12T06:54:15.283Z,54.10
2023-05-12T06:54:48.569Z,54.03
2023-05-12T06:55:22.980Z,53.87
2023-05-12T06:55:56.672Z,53.84
2023-05-12T06:56:30.247Z,53.86
2023-05-12T06:57:03.850Z,53.91
2023-05-12T06:57:37.029Z,53.85
2023-05-12T06:58:10.497Z,53.77
2023-05-12T06:58:44.424Z,53.78
2023-05-12T06:59:19.312Z,53.86
2023-05-12T06:59:53.515Z,53.80
2023-05-12T07:00:26.987Z,53.79
2023-05-12T07:01:00.635Z,53.72
2023-05-12T07:01:34.315Z,53.68
2023-05-12T07:02:07.861Z,53.64
2023-05-12T07:02:41.284Z,53.66
2023-05-12T07:03:14.867Z,53.51
2023-05-12T07:03:48.464Z,53.67
2023-05-12T07:04:23.440Z,53.73
2023-05-12T07:04:58.073Z,53.92
2023-05-12T07:05:31.565Z,53.81
2023-05-12T07:06:05.359Z,53.71
2023-05-12T07:06:38.818Z,53.61
2023-05-12T07:07:12.096Z,53.52
2023-05-12T07:07:45.911Z,53.37
2023-05-12T07:08:19.184Z,53.28
2023-05-12T07:08:52.449Z,53.17
2023-05-12T07:09:25.757Z,53.12
2023-05-12T07:09:59.127Z,53.03
2023-05-12T07:10:33.744Z,52.92
2023-05-12T07:11:07.314Z,52.84
2023-05-12T07:11:40.930Z,52.66
2023-05-12T07:12:14.292Z,52.46
2023-05-12T07:12:47.665Z,52.37
2023-05-12T07:13:20.949Z,52.37
2023-05-12T07:13:54.341Z,52.37
2023-05-12T07:14:27.940Z,52.43
2023-05-12T07:15:01.384Z,52.46
2023-05-12T07:15:35.321Z,52.44
2023-05-12T07:16:08.523Z,52.40
2023-05-12T07:16:41.828Z,52.31
2023-05-12T07:17:15.276Z,52.33
2023-05-12T07:17:48.757Z,52.36
2023-05-12T07:18:22.157Z,52.39